Time;durP1;ratioP1;P1;durP2;ratioP2;P2;SDS_P1;SDS_P2;PMS_P1;PMS_P2;Temp;Humidity;BMP_temperature;BMP_pressure;BME280_temperature;BME280_humidity;BME280_pressure;Samples;Min_cycle;Max_cycle;Signal;HPM_P1;HPM_P2
2024/03/02 00:00:14;;;;;;;8.40;6.73;;;10.80;99.90;;;;;;4933708;29;20523;-63
2024/03/02 00:02:44;;;;;;;4.40;4.10;;;10.80;99.90;;;;;;4942825;29;20531;-63
2024/03/02 00:05:12;;;;;;;4.90;4.50;;;10.70;99.90;;;;;;4941432;29;20513;-62
2024/03/02 00:07:48;;;;;;;3.73;3.43;;;10.80;99.90;;;;;;4934511;29;20420;-64
2024/03/02 00:10:20;;;;;;;3.60;3.37;;;10.80;99.90;;;;;;4933734;29;20777;-63
2024/03/02 00:12:48;;;;;;;3.30;3.10;;;10.60;99.90;;;;;;4934333;29;20920;-64
2024/03/02 00:15:44;;;;;;;3.83;3.53;;;10.60;99.90;;;;;;4933698;29;20418;-63
2024/03/02 00:18:18;;;;;;;3.00;2.80;;;10.70;99.90;;;;;;4933693;29;20425;-63
2024/03/02 00:20:44;;;;;;;3.70;3.43;;;10.80;99.90;;;;;;4930554;29;20904;-63
2024/03/02 00:23:11;;;;;;;3.77;3.40;;;10.80;99.90;;;;;;4933649;29;20449;-62
2024/03/02 00:25:46;;;;;;;4.13;3.73;;;10.90;99.90;;;;;;4934318;29;20563;-63
2024/03/02 00:28:26;;;;;;;3.30;3.10;;;10.90;99.90;;;;;;4933528;29;20536;-63
2024/03/02 00:30:59;;;;;;;3.40;3.20;;;10.90;99.90;;;;;;4926814;29;20997;-64
2024/03/02 00:33:32;;;;;;;3.40;3.20;;;10.90;99.90;;;;;;4937182;29;20454;-63
2024/03/02 00:35:59;;;;;;;3.30;3.10;;;10.70;99.90;;;;;;4926590;29;20409;-63
2024/03/02 00:38:26;;;;;;;3.40;3.13;;;10.80;99.90;;;;;;4935294;29;20420;-63
2024/03/02 00:40:52;;;;;;;3.77;3.47;;;10.80;99.90;;;;;;4949907;29;20410;-63
2024/03/02 00:43:43;;;;;;;3.83;3.57;;;10.70;99.90;;;;;;4939586;29;20497;-63
2024/03/02 00:46:11;;;;;;;3.83;3.63;;;10.70;99.90;;;;;;4922473;29;20480;-62
2024/03/02 00:48:37;;;;;;;3.30;3.10;;;10.80;99.90;;;;;;4935760;29;20471;-63
2024/03/02 00:51:06;;;;;;;3.70;3.40;;;10.80;99.90;;;;;;4937822;29;20418;-63
2024/03/02 00:53:32;;;;;;;4.10;3.67;;;10.80;99.90;;;;;;4938006;29;20423;-63
2024/03/02 00:55:59;;;;;;;4.43;4.13;;;10.90;99.90;;;;;;4938138;29;20490;-63
2024/03/02 00:58:25;;;;;;;4.00;3.70;;;10.90;99.90;;;;;;4937036;29;20476;-63
2024/03/02 01:00:51;;;;;;;4.73;4.27;;;10.80;99.90;;;;;;4937571;29;20424;-63
2024/03/02 01:03:16;;;;;;;3.80;3.30;;;10.90;99.90;;;;;;4943344;29;20195;-63
2024/03/02 01:05:43;;;;;;;3.40;3.20;;;10.90;99.90;;;;;;4936097;29;20696;-63
2024/03/02 01:08:12;;;;;;;3.37;3.17;;;11.00;99.90;;;;;;4942386;29;20276;-62
2024/03/02 01:10:37;;;;;;;4.17;3.87;;;11.10;99.90;;;;;;4932372;29;20421;-63
2024/03/02 01:13:03;;;;;;;3.80;3.50;;;11.20;99.90;;;;;;4938087;29;20407;-63
2024/03/02 01:15:29;;;;;;;3.80;3.50;;;10.80;99.60;;;;;;4928884;29;20266;-63
2024/03/02 01:17:55;;;;;;;4.80;3.60;;;10.80;99.90;;;;;;4937674;29;20479;-62
2024/03/02 01:20:21;;;;;;;3.80;3.50;;;10.80;99.90;;;;;;4936997;29;20174;-63
2024/03/02 01:22:47;;;;;;;3.60;3.30;;;10.90;99.90;;;;;;4937081;29;20245;-63
2024/03/02 01:25:13;;;;;;;3.67;3.33;;;11.00;99.90;;;;;;4937244;29;20457;-61
2024/03/02 01:27:39;;;;;;;4.20;3.90;;;11.10;99.60;;;;;;4937568;29;20221;-63
2024/03/02 01:30:06;;;;;;;3.90;3.60;;;11.10;99.20;;;;;;4937704;29;20416;-63
2024/03/02 01:32:31;;;;;;;4.23;3.83;;;11.20;99.90;;;;;;4935783;29;20181;-63
2024/03/02 01:34:57;;;;;;;3.90;3.60;;;11.20;99.10;;;;;;4952282;29;20442;-63
2024/03/02 01:37:23;;;;;;;3.53;3.20;;;11.20;99.10;;;;;;4923906;29;20220;-63
2024/03/02 01:39:48;;;;;;;4.07;3.70;;;11.00;98.50;;;;;;4968449;28;20180;-63
2024/03/02 01:42:14;;;;;;;3.50;3.30;;;11.00;98.80;;;;;;4961643;28;20194;-62
2024/03/02 01:44:40;;;;;;;3.07;2.87;;;11.00;98.80;;;;;;4935974;29;20235;-63
2024/03/02 01:47:06;;;;;;;3.37;3.07;;;10.90;98.80;;;;;;4937166;29;20185;-63
2024/03/02 01:49:33;;;;;;;3.00;2.80;;;11.00;98.70;;;;;;4936088;29;20757;-63
2024/03/02 01:51:59;;;;;;;3.00;2.80;;;11.10;98.50;;;;;;4937705;29;20403;-63
2024/03/02 01:54:25;;;;;;;3.30;2.70;;;11.20;98.30;;;;;;4936443;29;20754;-63
2024/03/02 01:56:51;;;;;;;2.87;2.60;;;11.20;98.20;;;;;;4937202;29;20417;-63
2024/03/02 01:59:17;;;;;;;2.67;2.53;;;11.10;97.70;;;;;;4936467;29;20188;-63
2024/03/02 02:01:42;;;;;;;2.57;2.47;;;11.10;98.20;;;;;;4937391;29;20173;-63
2024/03/02 02:04:08;;;;;;;2.83;2.63;;;11.10;97.90;;;;;;4932244;29;20481;-63
2024/03/02 02:06:34;;;;;;;2.90;2.70;;;11.20;98.00;;;;;;4929400;29;20179;-63
2024/03/02 02:09:00;;;;;;;2.63;2.43;;;11.20;97.60;;;;;;4937196;29;20238;-64
2024/03/02 02:11:26;;;;;;;3.10;2.87;;;11.10;97.30;;;;;;4936082;29;20581;-63
2024/03/02 02:13:52;;;;;;;2.80;2.60;;;11.10;97.80;;;;;;4936797;29;20498;-63
2024/03/02 02:16:17;;;;;;;2.40;2.30;;;11.20;97.40;;;;;;4936210;29;20181;-63
2024/03/02 02:18:43;;;;;;;3.60;2.80;;;11.10;96.90;;;;;;4936912;29;20281;-64
2024/03/02 02:21:09;;;;;;;3.00;2.80;;;11.10;97.20;;;;;;4936876;29;20190;-64
2024/03/02 02:23:34;;;;;;;2.50;2.37;;;11.10;97.20;;;;;;4935524;29;20250;-63
2024/03/02 02:26:02;;;;;;;2.40;2.30;;;11.00;96.90;;;;;;4936829;29;20544;-64
2024/03/02 02:28:28;;;;;;;2.33;2.13;;;10.80;97.60;;;;;;4935553;29;20219;-64
2024/03/02 02:30:56;;;;;;;2.30;2.20;;;10.80;97.60;;;;;;4936441;29;20772;-63
2024/03/02 02:33:22;;;;;;;2.40;2.23;;;10.90;97.60;;;;;;4946304;29;20197;-63
2024/03/02 02:35:48;;;;;;;3.00;2.80;;;10.80;98.00;;;;;;4955758;29;20903;-63
2024/03/02 02:38:14;;;;;;;2.20;2.10;;;10.60;97.70;;;;;;4945829;29;20429;-62
2024/03/02 02:40:39;;;;;;;2.40;2.20;;;10.50;98.10;;;;;;4935682;29;20436;-64
2024/03/02 02:43:06;;;;;;;3.20;2.70;;;10.30;98.80;;;;;;4922274;29;20256;-64
2024/03/02 02:45:32;;;;;;;2.60;2.50;;;10.50;99.00;;;;;;4935599;29;20199;-63
2024/03/02 02:47:58;;;;;;;2.23;2.13;;;10.50;99.10;;;;;;4936110;29;20414;-64
2024/03/02 02:50:24;;;;;;;2.10;2.00;;;10.40;98.70;;;;;;4934989;29;20240;-63
2024/03/02 02:52:50;;;;;;;2.00;1.90;;;10.30;98.90;;;;;;4935821;29;20549;-63
2024/03/02 02:55:16;;;;;;;2.20;2.10;;;10.40;99.80;;;;;;4935540;29;20186;-62
2024/03/02 02:57:42;;;;;;;3.13;2.07;;;10.50;99.60;;;;;;4935728;29;20927;-63
2024/03/02 03:00:10;;;;;;;2.40;2.30;;;10.70;99.00;;;;;;4940545;29;20190;-63
2024/03/02 03:02:41;;;;;;;2.50;2.37;;;10.70;98.00;;;;;;4944774;29;20436;-63
2024/03/02 03:05:08;;;;;;;2.00;1.90;;;10.50;98.00;;;;;;4946000;29;20525;-63
2024/03/02 03:07:34;;;;;;;2.20;2.10;;;10.40;98.30;;;;;;4935185;29;20839;-63
2024/03/02 03:10:01;;;;;;;2.50;2.40;;;10.40;98.70;;;;;;4935972;29;20411;-64
2024/03/02 03:12:26;;;;;;;2.33;2.17;;;10.50;98.90;;;;;;4934882;29;20473;-63
2024/03/02 03:14:52;;;;;;;2.10;1.90;;;10.60;98.50;;;;;;4935951;29;20779;-64
2024/03/02 03:17:18;;;;;;;2.13;2.03;;;10.70;97.90;;;;;;4935354;29;20467;-62
2024/03/02 03:19:44;;;;;;;2.70;1.80;;;10.80;98.70;;;;;;4935028;29;20211;-64
2024/03/02 03:22:09;;;;;;;5.30;2.37;;;10.90;97.60;;;;;;4935272;29;20188;-62
2024/03/02 03:24:35;;;;;;;1.97;1.87;;;10.70;97.30;;;;;;4934755;29;20211;-63
2024/03/02 03:27:01;;;;;;;2.47;2.27;;;10.80;97.30;;;;;;4935382;29;20271;-63
2024/03/02 03:29:26;;;;;;;2.60;1.90;;;10.90;97.30;;;;;;4933601;29;20227;-62
2024/03/02 03:31:52;;;;;;;2.90;2.60;;;10.80;97.10;;;;;;4939213;29;20241;-63
2024/03/02 03:34:18;;;;;;;2.70;2.60;;;10.90;97.20;;;;;;4920882;29;20590;-62
2024/03/02 03:36:44;;;;;;;1.87;1.80;;;10.90;96.60;;;;;;4934801;29;20430;-63
2024/03/02 03:39:10;;;;;;;2.30;2.10;;;11.00;96.80;;;;;;4927920;29;20207;-63
2024/03/02 03:41:36;;;;;;;1.90;1.80;;;11.10;96.80;;;;;;4934607;29;20189;-63
2024/03/02 03:44:01;;;;;;;2.43;2.27;;;11.10;96.60;;;;;;4926838;29;20826;-63
2024/03/02 03:46:27;;;;;;;2.10;2.00;;;11.10;96.40;;;;;;4934427;29;20188;-63
2024/03/02 03:48:53;;;;;;;2.10;2.00;;;11.10;96.10;;;;;;4935115;29;20790;-63
2024/03/02 03:51:18;;;;;;;3.07;2.20;;;10.90;96.00;;;;;;4935016;29;20647;-61
2024/03/02 03:53:44;;;;;;;2.47;2.27;;;10.80;96.40;;;;;;4934782;29;20195;-63
2024/03/02 03:56:10;;;;;;;2.50;2.30;;;10.70;96.80;;;;;;4934943;29;20660;-63
2024/03/02 03:58:36;;;;;;;2.53;2.43;;;10.70;97.00;;;;;;4934051;29;20189;-63
2024/03/02 04:01:02;;;;;;;2.40;2.20;;;10.70;96.80;;;;;;4951473;29;20199;-63
2024/03/02 04:03:27;;;;;;;3.00;2.80;;;10.80;97.00;;;;;;4946075;29;20781;-63
2024/03/02 04:05:53;;;;;;;2.77;2.57;;;10.90;96.80;;;;;;4934901;29;20221;-63
2024/03/02 04:08:19;;;;;;;3.20;2.47;;;10.80;96.70;;;;;;4925973;29;20634;-62
2024/03/02 04:10:44;;;;;;;2.80;2.70;;;10.90;96.80;;;;;;4934810;29;20319;-63
2024/03/02 04:13:10;;;;;;;3.33;3.03;;;10.90;97.30;;;;;;4934844;29;20652;-63
2024/03/02 04:15:36;;;;;;;3.10;2.83;;;11.00;97.00;;;;;;4934515;29;20266;-63
2024/03/02 04:18:01;;;;;;;2.90;2.70;;;11.10;96.90;;;;;;4934376;29;20645;-63
2024/03/02 04:20:27;;;;;;;3.10;3.00;;;11.10;96.60;;;;;;4934103;29;20267;-63
2024/03/02 04:22:53;;;;;;;2.70;2.50;;;11.00;96.40;;;;;;4934642;29;20217;-63
2024/03/02 04:25:19;;;;;;;2.93;2.70;;;11.00;96.40;;;;;;4934702;29;20235;-63
2024/03/02 04:27:45;;;;;;;2.73;2.63;;;10.90;97.00;;;;;;4934054;29;20248;-63
2024/03/02 04:30:12;;;;;;;3.00;2.83;;;10.90;97.60;;;;;;4936568;29;20468;-63
2024/03/02 04:32:38;;;;;;;2.90;2.70;;;10.90;97.00;;;;;;4933893;29;20412;-63
2024/03/02 04:35:05;;;;;;;2.63;2.53;;;10.90;97.00;;;;;;4934457;29;20194;-63
2024/03/02 04:37:34;;;;;;;3.30;3.00;;;10.80;97.20;;;;;;4934116;29;20429;-63
2024/03/02 04:40:00;;;;;;;3.07;2.87;;;10.80;97.20;;;;;;4934613;29;20430;-63
2024/03/02 04:42:26;;;;;;;3.37;3.07;;;10.90;98.10;;;;;;4934306;29;20742;-62
2024/03/02 04:44:51;;;;;;;3.10;2.90;;;10.90;97.10;;;;;;4934270;29;20487;-63
2024/03/02 04:47:17;;;;;;;3.40;3.20;;;10.90;97.00;;;;;;4928266;29;20246;-63
2024/03/02 04:49:43;;;;;;;3.50;3.20;;;10.90;97.50;;;;;;4933867;29;20185;-63
2024/03/02 04:52:09;;;;;;;3.30;3.10;;;11.00;97.40;;;;;;4934502;29;20659;-63
2024/03/02 04:55:09;;;;;;;3.53;3.23;;;11.00;97.10;;;;;;4933783;29;20179;-63
2024/03/02 04:57:23;;;;;;;3.77;3.50;;;10.80;97.20;;;;;;4933981;29;20504;-61
2024/03/02 04:59:49;;;;;;;3.93;3.73;;;10.80;97.90;;;;;;4935332;29;20433;-63
2024/03/02 05:02:15;;;;;;;3.80;3.60;;;10.60;97.90;;;;;;4934305;29;20668;-63
2024/03/02 05:04:41;;;;;;;4.13;3.93;;;10.60;98.30;;;;;;4933812;29;20205;-63
2024/03/02 05:07:07;;;;;;;3.60;3.40;;;10.70;97.80;;;;;;4934494;29;20631;-62
2024/03/02 05:09:33;;;;;;;3.67;3.40;;;10.70;98.00;;;;;;4933178;29;20411;-62
2024/03/02 05:14:53;;;;;;;3.37;3.13;;;10.80;98.20;;;;;;4929166;29;20224;-63
2024/03/02 05:17:19;;;;;;;3.90;3.33;;;10.90;97.50;;;;;;4933954;29;20424;-62
2024/03/02 05:19:45;;;;;;;3.87;3.60;;;10.90;97.50;;;;;;4933736;29;20208;-63
2024/03/02 05:22:10;;;;;;;3.63;3.33;;;11.00;97.50;;;;;;4934214;29;20256;-63
2024/03/02 05:24:36;;;;;;;3.80;3.60;;;11.00;97.10;;;;;;4934780;29;20198;-62
2024/03/02 05:27:02;;;;;;;3.13;2.93;;;11.00;97.10;;;;;;4937735;29;20189;-63
2024/03/02 05:29:28;;;;;;;3.90;3.60;;;11.00;97.20;;;;;;4937883;29;20793;-62
2024/03/02 05:31:53;;;;;;;4.10;3.80;;;11.00;96.90;;;;;;4937444;29;20346;-63
2024/03/02 05:34:19;;;;;;;7.00;4.07;;;10.90;97.10;;;;;;4937754;29;20185;-65
2024/03/02 05:36:45;;;;;;;4.17;3.97;;;10.80;97.20;;;;;;4936895;29;20762;-65
2024/03/02 05:39:10;;;;;;;4.67;4.27;;;10.60;97.80;;;;;;4937396;29;20208;-64
2024/03/02 05:41:37;;;;;;;4.27;3.93;;;10.50;98.10;;;;;;4936493;29;20197;-64
2024/03/02 05:44:04;;;;;;;4.73;3.80;;;10.60;98.10;;;;;;4937643;29;20209;-65
2024/03/02 05:46:29;;;;;;;4.87;4.47;;;10.50;98.50;;;;;;4936662;29;20424;-63
2024/03/02 05:48:55;;;;;;;4.70;3.93;;;10.60;98.40;;;;;;4940700;29;20519;-64
2024/03/02 05:51:21;;;;;;;4.60;4.20;;;10.50;98.40;;;;;;4948958;29;20186;-64
2024/03/02 05:53:47;;;;;;;3.97;3.67;;;10.40;98.90;;;;;;4948253;29;20767;-64
2024/03/02 05:56:13;;;;;;;4.00;3.70;;;10.30;99.20;;;;;;4955705;29;20185;-65
2024/03/02 06:01:28;;;;;;;5.17;4.70;;;10.30;99.30;;;;;;4937357;29;20212;-64
2024/03/02 06:03:58;;;;;;;5.70;5.20;;;10.10;99.80;;;;;;4945208;29;20492;-64
2024/03/02 06:06:24;;;;;;;7.00;5.37;;;10.20;99.90;;;;;;4936877;29;20410;-64
2024/03/02 06:08:50;;;;;;;4.37;4.07;;;10.20;99.90;;;;;;4938683;29;20439;-64
2024/03/02 06:11:16;;;;;;;5.40;4.90;;;10.30;99.60;;;;;;4936877;29;20265;-64
2024/03/02 06:13:42;;;;;;;5.20;4.70;;;10.40;99.70;;;;;;4936179;29;20521;-64
2024/03/02 06:16:08;;;;;;;4.70;4.30;;;10.10;99.70;;;;;;4936689;29;20502;-64
2024/03/02 06:18:34;;;;;;;6.20;5.60;;;10.10;99.90;;;;;;4936109;29;20181;-64
2024/03/02 06:21:01;;;;;;;5.10;4.60;;;10.20;99.90;;;;;;4936783;29;20441;-64
2024/03/02 06:23:27;;;;;;;6.30;5.70;;;10.30;99.90;;;;;;4938681;29;20436;-64
2024/03/02 06:25:53;;;;;;;6.53;5.47;;;10.40;99.80;;;;;;4948320;29;21006;-64
2024/03/02 06:28:18;;;;;;;5.70;5.23;;;10.20;99.80;;;;;;4944264;29;20475;-65
2024/03/02 06:30:45;;;;;;;4.80;4.50;;;10.30;99.70;;;;;;4935395;29;20441;-63
2024/03/02 06:33:11;;;;;;;4.60;3.90;;;10.30;99.80;;;;;;4936537;29;20256;-63
2024/03/02 06:35:37;;;;;;;6.00;5.43;;;10.40;99.90;;;;;;4935484;29;20425;-64
2024/03/02 06:38:02;;;;;;;5.23;4.83;;;10.20;99.90;;;;;;4936590;29;20489;-65
2024/03/02 06:40:28;;;;;;;6.97;6.00;;;10.20;99.90;;;;;;4944927;29;20442;-61
2024/03/02 06:42:54;;;;;;;5.50;5.00;;;10.20;99.90;;;;;;4954000;29;20458;-64
2024/03/02 06:45:20;;;;;;;6.20;5.70;;;10.20;99.90;;;;;;4949402;29;20215;-64
2024/03/02 06:47:45;;;;;;;4.50;4.10;;;10.40;99.90;;;;;;4928751;29;20188;-64
2024/03/02 06:50:11;;;;;;;5.70;5.30;;;10.40;99.90;;;;;;4935817;29;20182;-65
2024/03/02 06:52:38;;;;;;;6.20;5.70;;;10.20;99.90;;;;;;4935062;29;20201;-65
2024/03/02 06:55:04;;;;;;;6.43;5.93;;;10.10;99.90;;;;;;4926361;29;20434;-65
2024/03/02 06:57:31;;;;;;;6.53;5.27;;;10.10;99.90;;;;;;4934936;29;20417;-60
2024/03/02 06:59:58;;;;;;;7.97;6.50;;;10.20;99.90;;;;;;4954704;29;20938;-65
2024/03/02 07:02:27;;;;;;;7.03;6.33;;;10.20;99.90;;;;;;4931085;29;20180;-64
2024/03/02 07:04:53;;;;;;;5.30;4.90;;;10.30;99.90;;;;;;4934669;29;21030;-63
2024/03/02 07:07:19;;;;;;;5.00;4.60;;;10.30;99.90;;;;;;4935610;29;20425;-63
2024/03/02 07:09:45;;;;;;;5.30;5.00;;;10.30;99.90;;;;;;4918135;29;20420;-62
2024/03/02 07:12:11;;;;;;;6.00;5.40;;;10.10;99.90;;;;;;4936031;29;20622;-63
2024/03/02 07:15:11;;;;;;;5.10;4.70;;;10.20;99.90;;;;;;4935141;29;20433;-63
2024/03/02 07:17:37;;;;;;;4.50;4.20;;;10.20;99.90;;;;;;4934965;29;20173;-62
2024/03/02 07:20:03;;;;;;;4.50;4.10;;;10.20;99.90;;;;;;4935210;29;20433;-62
2024/03/02 07:22:29;;;;;;;4.70;4.40;;;10.20;99.90;;;;;;4935877;29;20432;-63
2024/03/02 07:24:55;;;;;;;4.93;4.00;;;10.40;99.90;;;;;;4934459;29;20466;-62
2024/03/02 07:27:21;;;;;;;4.50;4.10;;;10.30;99.90;;;;;;4934860;29;20509;-61
2024/03/02 07:29:47;;;;;;;4.73;4.33;;;10.50;99.90;;;;;;4920167;29;20564;-62
2024/03/02 07:32:13;;;;;;;5.20;4.80;;;10.60;99.90;;;;;;4935229;29;20435;-62
2024/03/02 07:34:38;;;;;;;5.07;4.60;;;10.60;99.90;;;;;;4934874;29;20601;-62
2024/03/02 07:37:05;;;;;;;4.60;4.10;;;10.60;99.90;;;;;;4934562;29;20258;-61
2024/03/02 07:39:31;;;;;;;4.97;4.57;;;10.70;99.90;;;;;;4934824;29;20190;-61
2024/03/02 07:41:57;;;;;;;5.07;4.23;;;10.80;99.90;;;;;;4934050;29;20425;-61
2024/03/02 07:44:23;;;;;;;4.47;4.07;;;10.80;99.90;;;;;;4934928;29;20834;-62
2024/03/02 07:46:52;;;;;;;4.10;3.80;;;10.70;99.90;;;;;;4933692;29;20944;-62
2024/03/02 07:49:20;;;;;;;4.90;4.40;;;10.70;99.90;;;;;;4933924;29;20267;-62
2024/03/02 07:51:46;;;;;;;4.03;3.70;;;10.70;99.90;;;;;;4944448;29;20493;-62
2024/03/02 07:54:12;;;;;;;4.33;4.03;;;10.80;99.90;;;;;;4950633;29;20422;-62
2024/03/02 07:56:38;;;;;;;3.87;3.60;;;10.80;99.90;;;;;;4934376;29;20178;-61
2024/03/02 07:59:04;;;;;;;4.37;4.07;;;10.70;99.90;;;;;;4935010;29;20481;-63
2024/03/02 08:01:31;;;;;;;5.07;4.63;;;10.80;99.90;;;;;;4935056;29;20432;-62
2024/03/02 08:03:58;;;;;;;5.00;4.60;;;10.70;99.90;;;;;;4934246;29;20490;-62
2024/03/02 08:06:28;;;;;;;4.60;4.20;;;10.80;99.90;;;;;;4934307;29;20415;-62
2024/03/02 08:08:58;;;;;;;4.63;4.17;;;10.90;99.90;;;;;;4933491;29;20519;-62
2024/03/02 08:11:24;;;;;;;4.30;4.00;;;11.10;99.90;;;;;;4934514;29;20425;-62
2024/03/02 08:13:50;;;;;;;4.57;4.27;;;11.10;99.40;;;;;;4927933;29;20443;-61
2024/03/02 08:16:19;;;;;;;4.30;3.90;;;11.20;99.10;;;;;;4936959;29;20424;-62
2024/03/02 08:18:45;;;;;;;4.43;4.13;;;11.20;98.60;;;;;;4935951;29;20766;-62
2024/03/02 08:21:12;;;;;;;4.47;4.17;;;11.20;98.80;;;;;;4937237;29;20433;-62
2024/03/02 08:23:38;;;;;;;4.87;4.57;;;11.30;99.10;;;;;;4933721;29;20442;-60
2024/03/02 08:26:04;;;;;;;5.80;5.10;;;11.30;98.50;;;;;;4934707;29;20466;-62
2024/03/02 08:28:30;;;;;;;3.80;3.60;;;11.30;98.30;;;;;;4918756;29;20556;-62
2024/03/02 08:30:56;;;;;;;4.10;3.80;;;11.30;98.70;;;;;;4934018;29;20433;-62
2024/03/02 08:33:22;;;;;;;4.10;3.80;;;11.20;98.90;;;;;;4902040;29;20186;-62
2024/03/02 08:35:48;;;;;;;3.93;3.60;;;11.20;99.10;;;;;;4948928;29;20425;-62
2024/03/02 08:38:13;;;;;;;4.17;3.77;;;11.30;98.50;;;;;;4934858;29;20191;-62
2024/03/02 08:40:39;;;;;;;4.17;3.87;;;11.40;98.90;;;;;;4934168;29;20631;-60
2024/03/02 08:43:05;;;;;;;3.80;3.60;;;11.20;98.00;;;;;;4934356;29;20187;-63
2024/03/02 08:45:31;;;;;;;3.70;3.40;;;11.10;98.50;;;;;;4934056;29;20235;-61
2024/03/02 08:47:56;;;;;;;4.63;4.10;;;11.10;98.90;;;;;;4933850;29;20729;-62
2024/03/02 08:50:22;;;;;;;3.77;3.47;;;11.10;99.40;;;;;;4934504;29;20186;-62
2024/03/02 08:52:48;;;;;;;4.03;3.83;;;11.40;99.40;;;;;;4933862;29;20645;-62
2024/03/02 08:55:14;;;;;;;3.70;3.40;;;11.50;98.50;;;;;;4934366;29;20187;-62
2024/03/02 08:57:41;;;;;;;3.63;3.43;;;11.70;98.50;;;;;;4935194;28;20190;-59
2024/03/02 09:00:08;;;;;;;4.20;3.87;;;11.60;97.90;;;;;;4956273;29;20183;-62
2024/03/02 09:02:34;;;;;;;3.30;3.00;;;11.70;97.80;;;;;;4947088;29;20810;-63
2024/03/02 09:04:59;;;;;;;3.90;3.60;;;11.80;98.10;;;;;;4937120;29;20511;-62
2024/03/02 09:07:25;;;;;;;4.30;4.00;;;12.00;98.50;;;;;;4937687;29;20186;-62
2024/03/02 09:09:52;;;;;;;3.70;3.43;;;12.20;97.50;;;;;;4937078;29;20181;-60
2024/03/02 09:12:19;;;;;;;3.90;3.67;;;12.30;98.40;;;;;;4938066;29;20188;-62
2024/03/02 09:14:45;;;;;;;4.50;4.17;;;12.70;99.90;;;;;;4937046;29;20483;-61
2024/03/02 09:17:11;;;;;;;3.53;3.33;;;12.80;98.00;;;;;;4937678;29;20850;-61
2024/03/02 09:19:38;;;;;;;3.90;3.60;;;12.80;96.70;;;;;;4929884;29;20600;-60
2024/03/02 09:22:05;;;;;;;4.10;3.90;;;12.90;99.90;;;;;;4943245;29;20465;-60
2024/03/02 09:24:33;;;;;;;4.37;4.07;;;13.20;99.30;;;;;;4909047;29;20469;-61
2024/03/02 09:26:59;;;;;;;4.03;3.83;;;13.60;98.60;;;;;;4953093;29;20436;-61
2024/03/02 09:29:25;;;;;;;3.93;3.73;;;13.90;95.60;;;;;;4954492;29;20811;-61
2024/03/02 09:31:50;;;;;;;3.60;3.30;;;14.20;95.40;;;;;;4955814;29;20489;-61
2024/03/02 09:34:16;;;;;;;4.00;3.80;;;14.50;92.80;;;;;;4954510;29;20424;-61
2024/03/02 09:36:42;;;;;;;3.17;2.97;;;14.20;92.40;;;;;;4952362;29;20639;-60
2024/03/02 09:39:09;;;;;;;3.30;3.20;;;14.40;92.60;;;;;;4939549;29;20462;-60
2024/03/02 09:41:38;;;;;;;2.90;2.80;;;14.60;92.60;;;;;;4946641;29;20198;-61
2024/03/02 09:44:05;;;;;;;2.80;2.70;;;14.60;91.10;;;;;;4951623;29;20470;-60
2024/03/02 09:46:31;;;;;;;2.60;2.50;;;14.90;92.50;;;;;;4942393;29;20440;-61
2024/03/02 09:48:59;;;;;;;3.00;2.80;;;15.10;90.10;;;;;;4935850;29;20440;-61
2024/03/02 09:51:25;;;;;;;3.50;3.23;;;14.90;90.00;;;;;;4936961;29;20420;-61
2024/03/02 09:53:51;;;;;;;168.90;89.77;;;15.10;90.40;;;;;;4935882;29;20422;-62
2024/03/02 09:56:18;;;;;;;5.23;4.83;;;15.30;88.80;;;;;;4936365;29;20918;-61
2024/03/02 09:58:44;;;;;;;2.70;2.60;;;15.60;88.00;;;;;;4935293;29;20429;-62
2024/03/02 10:01:10;;;;;;;2.80;2.60;;;15.80;87.80;;;;;;4935649;29;20517;-61
2024/03/02 10:03:37;;;;;;;8.57;2.53;;;16.10;88.70;;;;;;4936555;29;20421;-61
2024/03/02 10:06:22;;;;;;;2.50;2.30;;;16.30;85.40;;;;;;4936303;29;20766;-65
2024/03/02 10:08:48;;;;;;;2.50;2.40;;;16.40;84.60;;;;;;4936018;29;20756;-61
2024/03/02 10:11:34;;;;;;;2.37;2.27;;;16.40;83.00;;;;;;4937012;29;20973;-61
2024/03/02 10:14:09;;;;;;;2.30;2.20;;;16.60;82.80;;;;;;4935902;29;20418;-60
2024/03/02 10:16:38;;;;;;;109.03;67.13;;;16.40;82.10;;;;;;4936580;29;20524;-61
2024/03/02 10:19:21;;;;;;;59.47;42.77;;;16.50;82.50;;;;;;4935359;29;20516;-61
2024/03/02 10:21:52;;;;;;;3.47;3.27;;;16.50;83.00;;;;;;4936029;29;20394;-61
2024/03/02 10:24:18;;;;;;;5.60;2.50;;;16.70;83.50;;;;;;4939931;29;20822;-61
2024/03/02 10:26:45;;;;;;;2.20;2.10;;;17.00;81.30;;;;;;4937821;29;20424;-61
2024/03/02 10:29:12;;;;;;;2.53;2.43;;;17.00;78.60;;;;;;4956020;29;20805;-63
2024/03/02 10:31:39;;;;;;;2.33;2.33;;;17.00;78.90;;;;;;4956175;29;20778;-63
2024/03/02 10:34:06;;;;;;;2.50;2.40;;;17.20;78.50;;;;;;4955104;29;20439;-63
2024/03/02 10:36:34;;;;;;;2.90;2.70;;;17.20;78.00;;;;;;4955818;29;20453;-66
2024/03/02 10:39:05;;;;;;;2.60;2.50;;;17.10;77.50;;;;;;4954819;29;20900;-65
2024/03/02 10:41:38;;;;;;;3.17;2.97;;;17.30;77.70;;;;;;4955747;29;20422;-65
2024/03/02 10:44:07;;;;;;;2.20;2.10;;;17.20;76.50;;;;;;4954898;29;20563;-65
2024/03/02 10:46:35;;;;;;;2.70;2.50;;;17.40;77.00;;;;;;4953258;29;20479;-65
2024/03/02 10:49:03;;;;;;;2.57;2.40;;;17.60;75.20;;;;;;4955029;29;20424;-65
2024/03/02 10:51:33;;;;;;;3.43;3.30;;;17.50;76.60;;;;;;4955527;29;20428;-65
2024/03/02 10:54:01;;;;;;;3.80;3.60;;;17.80;75.70;;;;;;4954721;29;20424;-65
2024/03/02 10:56:44;;;;;;;4.00;3.80;;;18.20;76.60;;;;;;4953104;29;20436;-65
2024/03/02 10:59:25;;;;;;;3.87;3.77;;;18.60;73.30;;;;;;4949129;29;20413;-65
2024/03/02 11:01:55;;;;;;;3.60;3.50;;;18.90;71.00;;;;;;4954925;29;20481;-64
2024/03/02 11:04:24;;;;;;;3.90;3.70;;;19.20;71.20;;;;;;4955250;29;20814;-65
2024/03/02 11:06:51;;;;;;;3.73;3.53;;;19.50;68.70;;;;;;4954376;29;20467;-64
2024/03/02 11:09:21;;;;;;;3.90;3.60;;;19.70;67.20;;;;;;4954426;29;20928;-64
2024/03/02 11:11:55;;;;;;;3.60;3.50;;;19.70;65.30;;;;;;4955058;29;20556;-64
2024/03/02 11:14:24;;;;;;;3.10;3.00;;;19.60;65.10;;;;;;4955338;29;20412;-65
2024/03/02 11:16:51;;;;;;;2.80;2.70;;;19.10;65.30;;;;;;4936883;29;20787;-65
2024/03/02 11:19:18;;;;;;;2.90;2.80;;;19.10;66.70;;;;;;4954972;29;20416;-64
2024/03/02 11:21:45;;;;;;;2.77;2.57;;;19.00;67.00;;;;;;4951454;28;20432;-63
2024/03/02 11:24:32;;;;;;;3.93;3.80;;;19.20;68.30;;;;;;4937932;29;20790;-64
2024/03/02 11:26:59;;;;;;;2.23;2.23;;;19.10;66.80;;;;;;4937422;29;20464;-64
2024/03/02 11:29:36;;;;;;;2.87;2.67;;;19.00;66.80;;;;;;4955300;29;20465;-64
2024/03/02 11:32:23;;;;;;;2.23;2.13;;;18.20;67.10;;;;;;4954262;29;20858;-64
2024/03/02 11:34:50;;;;;;;2.40;2.30;;;17.90;68.80;;;;;;4937449;29;20844;-64
2024/03/02 11:37:18;;;;;;;2.53;2.40;;;18.00;71.70;;;;;;4955108;29;20427;-64
2024/03/02 11:39:45;;;;;;;2.60;2.40;;;18.40;71.30;;;;;;4954766;29;20952;-64
2024/03/02 11:42:14;;;;;;;2.60;2.50;;;18.40;68.00;;;;;;4954978;29;20838;-64
2024/03/02 11:44:42;;;;;;;2.40;2.30;;;18.20;68.90;;;;;;4953009;29;20471;-64
2024/03/02 11:47:14;;;;;;;2.20;2.20;;;18.20;69.70;;;;;;4951863;29;20515;-64
2024/03/02 11:49:50;;;;;;;2.53;2.43;;;18.40;69.70;;;;;;4954944;29;20799;-65
2024/03/02 11:52:17;;;;;;;2.60;2.50;;;18.50;68.20;;;;;;4955209;29;20424;-65
2024/03/02 11:54:47;;;;;;;2.63;2.53;;;18.60;67.80;;;;;;4954797;29;20496;-65
2024/03/02 11:57:17;;;;;;;2.23;2.13;;;18.70;69.10;;;;;;4954537;29;20473;-65
2024/03/02 11:59:44;;;;;;;1.97;1.93;;;18.80;68.40;;;;;;4954734;29;20428;-65
2024/03/02 12:02:35;;;;;;;2.83;2.70;;;18.90;66.60;;;;;;4954159;29;20420;-65
2024/03/02 12:05:04;;;;;;;2.63;2.53;;;19.00;66.90;;;;;;4943968;29;20535;-65
2024/03/02 12:07:30;;;;;;;2.20;2.10;;;19.20;68.30;;;;;;4954609;29;20404;-65
2024/03/02 12:10:03;;;;;;;4.40;2.07;;;19.60;67.80;;;;;;4953762;29;20458;-64
2024/03/02 12:12:28;;;;;;;2.80;2.70;;;19.70;65.40;;;;;;4954630;29;20412;-65
2024/03/02 12:14:55;;;;;;;2.30;2.20;;;19.30;65.20;;;;;;4951534;29;20445;-64
2024/03/02 12:17:22;;;;;;;2.20;2.10;;;19.10;66.70;;;;;;4942647;29;20213;-65
2024/03/02 12:19:48;;;;;;;1.90;1.80;;;19.00;65.80;;;;;;4934848;29;20430;-64
2024/03/02 12:22:15;;;;;;;2.20;2.10;;;18.70;67.20;;;;;;4934769;29;20414;-62
2024/03/02 12:24:41;;;;;;;2.50;2.40;;;18.50;66.90;;;;;;4934976;29;20828;-64
2024/03/02 12:27:07;;;;;;;2.63;2.53;;;18.30;68.60;;;;;;4921153;29;20879;-63
2024/03/02 12:29:34;;;;;;;2.80;2.70;;;18.20;68.10;;;;;;4909596;29;20539;-64
2024/03/02 12:32:02;;;;;;;2.60;2.50;;;18.20;69.10;;;;;;4953818;29;20787;-62
2024/03/02 12:34:28;;;;;;;2.40;2.30;;;18.00;68.30;;;;;;4955778;28;20421;-63
2024/03/02 12:36:53;;;;;;;2.70;2.60;;;18.10;68.70;;;;;;4938063;29;20431;-63
2024/03/02 12:39:20;;;;;;;3.00;2.80;;;18.00;68.10;;;;;;4953843;29;20429;-63
2024/03/02 12:41:54;;;;;;;2.80;2.70;;;17.90;70.30;;;;;;4938595;29;20181;-62
2024/03/02 12:44:20;;;;;;;3.10;3.00;;;17.70;70.50;;;;;;4939742;29;20872;-63
2024/03/02 12:46:46;;;;;;;2.90;2.80;;;17.30;70.90;;;;;;4938491;29;20776;-63
2024/03/02 12:49:14;;;;;;;2.50;2.40;;;17.10;71.70;;;;;;4930900;29;21104;-62
2024/03/02 12:51:40;;;;;;;2.87;2.70;;;16.90;72.70;;;;;;4934130;29;20450;-62